RJTY/OKO METAR and TAF weather

Enter ICAO airport designator
Station Type Date Time Source
RJTY METAR 2018/12/12 12:56 UTC NOAA

RJTY 121256Z AUTO 01014G20KT 10SM CLR 07/M02 A3002 RMK AO2 SLP175 T00661023 FZRANO $


Station Type Date Time Source
RJTY Decoded METAR 2018/12/12 12:56 UTC NOAA

Yokota Ab, Japan (RJTY) 35-45N 139-21E 142M
Dec 12, 2018 - 07:56 AM EST / 2018.12.12 1256 UTC
Wind: from the N (010 degrees) at 16 MPH (14 KT) gusting to 23 MPH (20 KT):0
Visibility: 10 mile(s):0
Sky conditions: clear
Temperature: 43.9 F (6.6 C)
Dew Point: 27.9 F (-2.3 C)
Relative Humidity: 52%
Pressure (altimeter): 30.02 in. Hg (1016 hPa)
ob: RJTY 121256Z AUTO 01014G20KT 10SM CLR 07/M02 A3002 RMK AO2 SLP175 T00661023 FZRANO
cycle: 13

Station Type Date Time Source
RJTY TAF 2018/12/12 10:36 UTC NOAA

TAF TAF
AMD RJTY 121030Z 1210/1311 02012G18KT 9999 SCT060 QNH2980INS
TEMPO 1210/1215 02015G25KT
BECMG 1219/1220 01010G15KT 9999 SCT050 QNH3005INS
BECMG 1301/1302 VRB06KT 9999 SCT050 QNH3012INS TX08/1210Z TN03/1221Z


Example: see airport list